sensor_id;sensor_type;location;lat;lon;timestamp;pressure;altitude;pressure_sealevel;temperature;humidity
68634;BME280;55625;47.072;22.192;2024-01-15T00:02:22;98765.06;;;-2.80;100.00
68634;BME280;55625;47.072;22.192;2024-01-15T00:04:48;98758.44;;;-2.54;100.00
68634;BME280;55625;47.072;22.192;2024-01-15T00:07:14;98753.72;;;-2.46;100.00
68634;BME280;55625;47.072;22.192;2024-01-15T00:09:40;98760.50;;;-2.40;100.00
68634;BME280;55625;47.072;22.192;2024-01-15T00:12:06;98741.88;;;-2.36;100.00
68634;BME280;55625;47.072;22.192;2024-01-15T00:14:32;98731.97;;;-2.34;100.00
68634;BME280;55625;47.072;22.192;2024-01-15T00:16:58;98744.69;;;-2.26;100.00
68634;BME280;55625;47.072;22.192;2024-01-15T00:19:24;98734.78;;;-2.20;100.00
68634;BME280;55625;47.072;22.192;2024-01-15T00:21:50;98732.03;;;-2.05;100.00
68634;BME280;55625;47.072;22.192;2024-01-15T00:24:16;98714.19;;;-1.97;100.00
68634;BME280;55625;47.072;22.192;2024-01-15T00:26:42;98729.28;;;-1.91;100.00
68634;BME280;55625;47.072;22.192;2024-01-15T00:29:09;98725.75;;;-1.81;100.00
68634;BME280;55625;47.072;22.192;2024-01-15T00:31:35;98738.06;;;-1.75;100.00
68634;BME280;55625;47.072;22.192;2024-01-15T00:34:01;98741.63;;;-1.74;100.00
68634;BME280;55625;47.072;22.192;2024-01-15T00:36:28;98723.75;;;-1.73;100.00
68634;BME280;55625;47.072;22.192;2024-01-15T00:38:54;98713.03;;;-1.71;100.00
68634;BME280;55625;47.072;22.192;2024-01-15T00:41:20;98709.44;;;-1.68;100.00
68634;BME280;55625;47.072;22.192;2024-01-15T00:43:47;98719.00;;;-1.66;100.00
68634;BME280;55625;47.072;22.192;2024-01-15T00:46:15;98737.66;;;-1.59;100.00
68634;BME280;55625;47.072;22.192;2024-01-15T00:48:41;98727.72;;;-1.57;100.00
68634;BME280;55625;47.072;22.192;2024-01-15T00:51:07;98722.56;;;-1.54;100.00
68634;BME280;55625;47.072;22.192;2024-01-15T00:53:33;98708.28;;;-1.53;100.00
68634;BME280;55625;47.072;22.192;2024-01-15T00:55:59;98700.31;;;-1.51;100.00
68634;BME280;55625;47.072;22.192;2024-01-15T00:58:26;98701.53;;;-1.48;100.00
68634;BME280;55625;47.072;22.192;2024-01-15T01:01:42;98689.59;;;-1.45;100.00
68634;BME280;55625;47.072;22.192;2024-01-15T01:04:09;98684.81;;;-1.45;100.00
68634;BME280;55625;47.072;22.192;2024-01-15T01:06:36;98681.63;;;-1.43;100.00
68634;BME280;55625;47.072;22.192;2024-01-15T01:09:01;98688.78;;;-1.42;100.00
68634;BME280;55625;47.072;22.192;2024-01-15T01:11:27;98669.72;;;-1.40;100.00
68634;BME280;55625;47.072;22.192;2024-01-15T01:13:53;98673.69;;;-1.38;100.00
68634;BME280;55625;47.072;22.192;2024-01-15T01:16:19;98660.94;;;-1.32;100.00
68634;BME280;55625;47.072;22.192;2024-01-15T01:18:45;98653.78;;;-1.29;100.00
68634;BME280;55625;47.072;22.192;2024-01-15T01:21:11;98647.41;;;-1.26;100.00
68634;BME280;55625;47.072;22.192;2024-01-15T01:23:37;98647.41;;;-1.22;100.00
68634;BME280;55625;47.072;22.192;2024-01-15T01:26:03;98638.66;;;-1.17;100.00
68634;BME280;55625;47.072;22.192;2024-01-15T01:28:29;98642.63;;;-1.15;100.00
68634;BME280;55625;47.072;22.192;2024-01-15T01:30:55;98632.28;;;-1.11;100.00
68634;BME280;55625;47.072;22.192;2024-01-15T01:33:20;98634.25;;;-1.08;100.00
68634;BME280;55625;47.072;22.192;2024-01-15T01:35:46;98632.66;;;-1.05;100.00
68634;BME280;55625;47.072;22.192;2024-01-15T01:38:13;98636.22;;;-1.05;100.00
68634;BME280;55625;47.072;22.192;2024-01-15T01:40:39;98627.88;;;-1.05;100.00
68634;BME280;55625;47.072;22.192;2024-01-15T01:43:05;98626.69;;;-1.04;100.00
68634;BME280;55625;47.072;22.192;2024-01-15T01:45:31;98608.38;;;-1.01;100.00
68634;BME280;55625;47.072;22.192;2024-01-15T01:47:57;98606.38;;;-1.01;100.00
68634;BME280;55625;47.072;22.192;2024-01-15T01:50:23;98592.88;;;-1.02;100.00
68634;BME280;55625;47.072;22.192;2024-01-15T01:52:49;98582.13;;;-1.00;100.00
68634;BME280;55625;47.072;22.192;2024-01-15T01:55:15;98572.16;;;-0.94;100.00
68634;BME280;55625;47.072;22.192;2024-01-15T01:57:42;98567.75;;;-0.84;100.00
68634;BME280;55625;47.072;22.192;2024-01-15T02:00:08;98566.03;;;-0.68;100.00
68634;BME280;55625;47.072;22.192;2024-01-15T02:02:34;98560.78;;;-0.51;100.00
68634;BME280;55625;47.072;22.192;2024-01-15T02:05:03;98560.34;;;-0.46;100.00
68634;BME280;55625;47.072;22.192;2024-01-15T02:07:29;98556.69;;;-0.36;99.07
68634;BME280;55625;47.072;22.192;2024-01-15T02:09:55;98558.50;;;-0.12;98.11
68634;BME280;55625;47.072;22.192;2024-01-15T02:12:21;98559.22;;;-0.04;97.53
68634;BME280;55625;47.072;22.192;2024-01-15T02:14:47;98547.97;;;0.10;96.47
68634;BME280;55625;47.072;22.192;2024-01-15T02:17:13;98548.59;;;0.25;95.62
68634;BME280;55625;47.072;22.192;2024-01-15T02:19:39;98530.25;;;0.27;95.17
68634;BME280;55625;47.072;22.192;2024-01-15T02:22:06;98541.38;;;0.35;95.25
68634;BME280;55625;47.072;22.192;2024-01-15T02:24:32;98535.78;;;0.35;94.79
68634;BME280;55625;47.072;22.192;2024-01-15T02:26:58;98527.38;;;0.38;94.56
68634;BME280;55625;47.072;22.192;2024-01-15T02:29:24;98523.25;;;0.50;93.14
68634;BME280;55625;47.072;22.192;2024-01-15T02:31:50;98512.47;;;0.52;93.17
68634;BME280;55625;47.072;22.192;2024-01-15T02:34:16;98521.63;;;0.52;93.43
68634;BME280;55625;47.072;22.192;2024-01-15T02:36:42;98520.31;;;0.64;92.76
68634;BME280;55625;47.072;22.192;2024-01-15T02:39:08;98514.59;;;0.75;91.44
68634;BME280;55625;47.072;22.192;2024-01-15T02:41:34;98511.16;;;0.94;90.38
68634;BME280;55625;47.072;22.192;2024-01-15T02:43:59;98514.19;;;1.07;89.40
68634;BME280;55625;47.072;22.192;2024-01-15T02:46:25;98502.63;;;1.05;89.91
68634;BME280;55625;47.072;22.192;2024-01-15T02:48:51;98496.53;;;1.13;89.27
68634;BME280;55625;47.072;22.192;2024-01-15T02:51:17;98485.22;;;1.24;88.03
68634;BME280;55625;47.072;22.192;2024-01-15T02:53:43;98489.31;;;1.16;89.13
68634;BME280;55625;47.072;22.192;2024-01-15T02:56:09;98485.03;;;1.08;90.40
68634;BME280;55625;47.072;22.192;2024-01-15T02:58:34;98472.66;;;1.09;90.58
68634;BME280;55625;47.072;22.192;2024-01-15T03:01:00;98468.63;;;1.10;90.17
68634;BME280;55625;47.072;22.192;2024-01-15T03:03:26;98468.63;;;1.10;90.56
68634;BME280;55625;47.072;22.192;2024-01-15T03:05:52;98459.09;;;1.07;91.40
68634;BME280;55625;47.072;22.192;2024-01-15T03:08:18;98462.88;;;1.20;90.09
68634;BME280;55625;47.072;22.192;2024-01-15T03:10:44;98456.72;;;1.33;88.82
68634;BME280;55625;47.072;22.192;2024-01-15T03:13:10;98450.09;;;1.23;89.97
68634;BME280;55625;47.072;22.192;2024-01-15T03:15:35;98450.84;;;1.27;89.36
68634;BME280;55625;47.072;22.192;2024-01-15T03:18:01;98434.06;;;1.27;89.82
68634;BME280;55625;47.072;22.192;2024-01-15T03:20:27;98430.91;;;1.25;91.26
68634;BME280;55625;47.072;22.192;2024-01-15T03:22:53;98420.56;;;1.22;91.38
68634;BME280;55625;47.072;22.192;2024-01-15T03:25:19;98411.94;;;1.13;92.27
68634;BME280;55625;47.072;22.192;2024-01-15T03:27:45;98410.41;;;1.08;92.61
68634;BME280;55625;47.072;22.192;2024-01-15T03:30:11;98419.22;;;1.07;92.25
68634;BME280;55625;47.072;22.192;2024-01-15T03:32:37;98420.84;;;1.04;92.76
68634;BME280;55625;47.072;22.192;2024-01-15T03:35:03;98420.09;;;1.00;93.68
68634;BME280;55625;47.072;22.192;2024-01-15T03:37:29;98417.38;;;0.97;94.36
68634;BME280;55625;47.072;22.192;2024-01-15T03:39:55;98415.31;;;1.01;93.97
68634;BME280;55625;47.072;22.192;2024-01-15T03:42:22;98422.47;;;1.02;93.94
68634;BME280;55625;47.072;22.192;2024-01-15T03:44:47;98415.38;;;0.97;94.96
68634;BME280;55625;47.072;22.192;2024-01-15T03:47:13;98407.13;;;0.86;97.71
68634;BME280;55625;47.072;22.192;2024-01-15T03:49:40;98415.88;;;0.88;96.66
68634;BME280;55625;47.072;22.192;2024-01-15T03:52:06;98411.78;;;0.97;95.82
68634;BME280;55625;47.072;22.192;2024-01-15T03:54:32;98404.81;;;1.08;95.00
68634;BME280;55625;47.072;22.192;2024-01-15T03:56:57;98401.91;;;1.15;94.20
68634;BME280;55625;47.072;22.192;2024-01-15T03:59:23;98396.97;;;1.27;94.30
68634;BME280;55625;47.072;22.192;2024-01-15T04:01:50;98391.53;;;1.39;93.36
68634;BME280;55625;47.072;22.192;2024-01-15T04:04:19;98386.56;;;1.50;93.83
68634;BME280;55625;47.072;22.192;2024-01-15T04:06:44;98385.84;;;1.46;93.31
68634;BME280;55625;47.072;22.192;2024-01-15T04:09:12;98392.75;;;1.38;94.95
68634;BME280;55625;47.072;22.192;2024-01-15T04:11:39;98394.47;;;1.32;95.20
68634;BME280;55625;47.072;22.192;2024-01-15T04:14:05;98403.63;;;1.33;95.46
68634;BME280;55625;47.072;22.192;2024-01-15T04:16:31;98382.50;;;1.32;96.07
68634;BME280;55625;47.072;22.192;2024-01-15T04:18:57;98379.69;;;1.32;95.86
68634;BME280;55625;47.072;22.192;2024-01-15T04:21:23;98382.44;;;1.35;95.36
68634;BME280;55625;47.072;22.192;2024-01-15T04:23:49;98372.41;;;1.38;94.93
68634;BME280;55625;47.072;22.192;2024-01-15T04:26:15;98363.59;;;1.39;94.48
68634;BME280;55625;47.072;22.192;2024-01-15T04:28:41;98372.78;;;1.40;94.80
68634;BME280;55625;47.072;22.192;2024-01-15T04:31:07;98366.75;;;1.41;94.47
68634;BME280;55625;47.072;22.192;2024-01-15T04:33:33;98365.91;;;1.44;94.39
68634;BME280;55625;47.072;22.192;2024-01-15T04:36:04;98365.84;;;1.48;94.14
68634;BME280;55625;47.072;22.192;2024-01-15T04:38:30;98360.94;;;1.55;94.61
68634;BME280;55625;47.072;22.192;2024-01-15T04:40:58;98360.06;;;1.59;94.61
68634;BME280;55625;47.072;22.192;2024-01-15T04:43:24;98351.19;;;1.64;94.00
68634;BME280;55625;47.072;22.192;2024-01-15T04:45:49;98350.91;;;1.78;93.29
68634;BME280;55625;47.072;22.192;2024-01-15T04:48:15;98346.34;;;1.88;92.63
68634;BME280;55625;47.072;22.192;2024-01-15T04:50:41;98349.16;;;1.88;92.36
68634;BME280;55625;47.072;22.192;2024-01-15T04:53:07;98350.81;;;1.85;92.64
68634;BME280;55625;47.072;22.192;2024-01-15T04:55:33;98357.72;;;1.77;93.41
68634;BME280;55625;47.072;22.192;2024-01-15T04:57:59;98350.69;;;1.69;94.22
68634;BME280;55625;47.072;22.192;2024-01-15T05:00:25;98344.09;;;1.79;92.84
68634;BME280;55625;47.072;22.192;2024-01-15T05:02:51;98351.53;;;1.89;92.37
68634;BME280;55625;47.072;22.192;2024-01-15T05:05:16;98345.94;;;1.89;92.34
68634;BME280;55625;47.072;22.192;2024-01-15T05:07:42;98353.97;;;1.87;93.36
68634;BME280;55625;47.072;22.192;2024-01-15T05:10:08;98342.09;;;1.79;94.02
68634;BME280;55625;47.072;22.192;2024-01-15T05:12:34;98342.59;;;1.74;93.68
68634;BME280;55625;47.072;22.192;2024-01-15T05:15:00;98340.59;;;1.75;94.39
68634;BME280;55625;47.072;22.192;2024-01-15T05:17:26;98345.22;;;1.85;93.46
68634;BME280;55625;47.072;22.192;2024-01-15T05:19:52;98336.81;;;1.85;94.20
68634;BME280;55625;47.072;22.192;2024-01-15T05:22:18;98331.63;;;1.83;94.20
68634;BME280;55625;47.072;22.192;2024-01-15T05:24:44;98329.78;;;1.97;93.19
68634;BME280;55625;47.072;22.192;2024-01-15T05:27:09;98330.78;;;2.06;93.27
68634;BME280;55625;47.072;22.192;2024-01-15T05:29:35;98321.09;;;2.31;92.53
68634;BME280;55625;47.072;22.192;2024-01-15T05:32:01;98326.69;;;2.31;91.58
68634;BME280;55625;47.072;22.192;2024-01-15T05:34:27;98324.75;;;2.28;91.94
68634;BME280;55625;47.072;22.192;2024-01-15T05:36:53;98321.88;;;2.31;91.79
68634;BME280;55625;47.072;22.192;2024-01-15T05:39:19;98321.09;;;2.31;91.79
68634;BME280;55625;47.072;22.192;2024-01-15T05:41:44;98309.88;;;2.31;91.89
68634;BME280;55625;47.072;22.192;2024-01-15T05:44:10;98301.13;;;2.29;92.79
68634;BME280;55625;47.072;22.192;2024-01-15T05:46:36;98302.63;;;2.33;92.09
68634;BME280;55625;47.072;22.192;2024-01-15T05:49:02;98298.88;;;2.40;91.53
68634;BME280;55625;47.072;22.192;2024-01-15T05:51:28;98285.75;;;2.37;91.50
68634;BME280;55625;47.072;22.192;2024-01-15T05:53:54;98283.72;;;2.57;90.67
68634;BME280;55625;47.072;22.192;2024-01-15T05:56:19;98284.03;;;2.43;91.65
68634;BME280;55625;47.072;22.192;2024-01-15T05:58:45;98286.81;;;2.43;91.89
68634;BME280;55625;47.072;22.192;2024-01-15T06:01:11;98275.25;;;2.41;92.19
68634;BME280;55625;47.072;22.192;2024-01-15T06:03:37;98276.00;;;2.45;92.60
68634;BME280;55625;47.072;22.192;2024-01-15T06:06:03;98278.28;;;2.50;92.17
68634;BME280;55625;47.072;22.192;2024-01-15T06:08:29;98277.56;;;2.46;92.32
68634;BME280;55625;47.072;22.192;2024-01-15T06:10:56;98277.06;;;2.51;92.13
68634;BME280;55625;47.072;22.192;2024-01-15T06:13:22;98283.88;;;2.50;92.28
68634;BME280;55625;47.072;22.192;2024-01-15T06:15:48;98277.41;;;2.53;92.09
68634;BME280;55625;47.072;22.192;2024-01-15T06:18:14;98279.94;;;2.47;92.55
68634;BME280;55625;47.072;22.192;2024-01-15T06:20:40;98262.34;;;2.47;92.60
68634;BME280;55625;47.072;22.192;2024-01-15T06:23:06;98263.56;;;2.46;93.04
68634;BME280;55625;47.072;22.192;2024-01-15T06:25:31;98262.19;;;2.54;93.07
68634;BME280;55625;47.072;22.192;2024-01-15T06:27:57;98266.13;;;2.57;93.15
68634;BME280;55625;47.072;22.192;2024-01-15T06:30:23;98262.63;;;2.53;92.83
68634;BME280;55625;47.072;22.192;2024-01-15T06:32:49;98267.78;;;2.54;92.95
68634;BME280;55625;47.072;22.192;2024-01-15T06:35:16;98258.84;;;2.59;93.44
68634;BME280;55625;47.072;22.192;2024-01-15T06:37:41;98265.84;;;2.67;92.29
68634;BME280;55625;47.072;22.192;2024-01-15T06:40:08;98271.63;;;2.60;93.19
68634;BME280;55625;47.072;22.192;2024-01-15T06:42:34;98281.09;;;2.66;94.33
68634;BME280;55625;47.072;22.192;2024-01-15T06:45:00;98264.03;;;2.61;97.06
68634;BME280;55625;47.072;22.192;2024-01-15T06:47:26;98269.28;;;2.59;99.75
68634;BME280;55625;47.072;22.192;2024-01-15T06:49:52;98265.66;;;2.42;100.00
68634;BME280;55625;47.072;22.192;2024-01-15T06:52:18;98270.09;;;2.39;100.00
68634;BME280;55625;47.072;22.192;2024-01-15T06:54:44;98259.50;;;2.31;100.00
68634;BME280;55625;47.072;22.192;2024-01-15T06:57:10;98260.91;;;2.39;100.00
68634;BME280;55625;47.072;22.192;2024-01-15T06:59:36;98278.47;;;2.23;100.00
68634;BME280;55625;47.072;22.192;2024-01-15T07:02:02;98263.91;;;2.12;100.00
68634;BME280;55625;47.072;22.192;2024-01-15T07:04:28;98263.19;;;2.08;100.00
68634;BME280;55625;47.072;22.192;2024-01-15T07:06:54;98275.88;;;2.12;100.00
68634;BME280;55625;47.072;22.192;2024-01-15T07:09:20;98267.22;;;2.07;100.00
68634;BME280;55625;47.072;22.192;2024-01-15T07:11:46;98263.91;;;2.12;100.00
68634;BME280;55625;47.072;22.192;2024-01-15T07:14:12;98260.13;;;2.02;100.00
68634;BME280;55625;47.072;22.192;2024-01-15T07:16:38;98268.09;;;2.04;100.00
68634;BME280;55625;47.072;22.192;2024-01-15T07:19:05;98267.38;;;2.00;100.00
68634;BME280;55625;47.072;22.192;2024-01-15T07:21:31;98267.72;;;2.02;100.00
68634;BME280;55625;47.072;22.192;2024-01-15T07:23:56;98261.63;;;2.07;100.00
68634;BME280;55625;47.072;22.192;2024-01-15T07:26:22;98279.56;;;2.09;100.00
68634;BME280;55625;47.072;22.192;2024-01-15T07:28:48;98277.13;;;2.11;100.00
68634;BME280;55625;47.072;22.192;2024-01-15T07:31:17;98291.41;;;2.17;100.00
68634;BME280;55625;47.072;22.192;2024-01-15T07:33:42;98289.44;;;2.14;100.00
68634;BME280;55625;47.072;22.192;2024-01-15T07:36:08;98291.75;;;2.19;100.00
68634;BME280;55625;47.072;22.192;2024-01-15T07:38:34;98290.81;;;2.26;100.00
68634;BME280;55625;47.072;22.192;2024-01-15T07:41:00;98302.88;;;2.23;100.00
68634;BME280;55625;47.072;22.192;2024-01-15T07:43:26;98314.06;;;2.23;100.00
68634;BME280;55625;47.072;22.192;2024-01-15T07:45:53;98304.97;;;2.18;100.00
68634;BME280;55625;47.072;22.192;2024-01-15T07:48:19;98300.72;;;2.10;100.00
68634;BME280;55625;47.072;22.192;2024-01-15T07:50:46;98294.06;;;2.04;100.00
68634;BME280;55625;47.072;22.192;2024-01-15T07:53:11;98291.34;;;2.01;100.00
68634;BME280;55625;47.072;22.192;2024-01-15T07:55:37;98287.38;;;1.98;100.00
68634;BME280;55625;47.072;22.192;2024-01-15T07:58:03;98279.63;;;2.06;100.00
68634;BME280;55625;47.072;22.192;2024-01-15T08:00:30;98281.47;;;2.12;100.00
68634;BME280;55625;47.072;22.192;2024-01-15T08:02:56;98274.31;;;2.11;100.00
68634;BME280;55625;47.072;22.192;2024-01-15T08:05:22;98289.88;;;2.12;100.00
68634;BME280;55625;47.072;22.192;2024-01-15T08:07:48;98288.31;;;2.11;100.00
68634;BME280;55625;47.072;22.192;2024-01-15T08:10:14;98288.66;;;2.13;100.00
68634;BME280;55625;47.072;22.192;2024-01-15T08:12:40;98284.34;;;2.29;100.00
68634;BME280;55625;47.072;22.192;2024-01-15T08:15:05;98274.88;;;2.23;100.00
68634;BME280;55625;47.072;22.192;2024-01-15T08:17:31;98275.84;;;2.16;100.00
68634;BME280;55625;47.072;22.192;2024-01-15T08:19:58;98280.13;;;2.21;100.00
68634;BME280;55625;47.072;22.192;2024-01-15T08:22:25;98279.69;;;2.22;100.00
68634;BME280;55625;47.072;22.192;2024-01-15T08:24:50;98284.84;;;2.24;100.00
68634;BME280;55625;47.072;22.192;2024-01-15T08:27:17;98296.41;;;2.26;100.00
68634;BME280;55625;47.072;22.192;2024-01-15T08:29:43;98301.13;;;2.29;100.00
68634;BME280;55625;47.072;22.192;2024-01-15T08:32:10;98296.59;;;2.35;100.00
68634;BME280;55625;47.072;22.192;2024-01-15T08:34:39;98307.84;;;2.51;100.00
68634;BME280;55625;47.072;22.192;2024-01-15T08:37:05;98299.59;;;2.44;100.00
68634;BME280;55625;47.072;22.192;2024-01-15T08:39:31;98318.22;;;2.34;100.00
68634;BME280;55625;47.072;22.192;2024-01-15T08:41:57;98314.53;;;2.37;100.00
68634;BME280;55625;47.072;22.192;2024-01-15T08:44:23;98313.88;;;2.49;100.00
68634;BME280;55625;47.072;22.192;2024-01-15T08:46:49;98327.63;;;2.60;100.00
68634;BME280;55625;47.072;22.192;2024-01-15T08:49:15;98324.91;;;2.57;100.00
68634;BME280;55625;47.072;22.192;2024-01-15T08:51:40;98326.22;;;2.52;100.00
68634;BME280;55625;47.072;22.192;2024-01-15T08:54:06;98340.78;;;2.43;100.00
68634;BME280;55625;47.072;22.192;2024-01-15T08:56:34;98329.84;;;2.33;100.00
68634;BME280;55625;47.072;22.192;2024-01-15T08:59:00;98347.41;;;2.33;100.00
68634;BME280;55625;47.072;22.192;2024-01-15T09:01:26;98355.09;;;2.29;100.00
68634;BME280;55625;47.072;22.192;2024-01-15T09:03:52;98354.75;;;2.47;100.00
68634;BME280;55625;47.072;22.192;2024-01-15T09:06:18;98347.19;;;2.44;100.00
68634;BME280;55625;47.072;22.192;2024-01-15T09:08:44;98363.38;;;2.72;100.00
68634;BME280;55625;47.072;22.192;2024-01-15T09:11:10;98355.84;;;2.69;100.00
68634;BME280;55625;47.072;22.192;2024-01-15T09:13:36;98348.09;;;2.77;100.00
68634;BME280;55625;47.072;22.192;2024-01-15T09:16:02;98350.22;;;2.69;100.00
68634;BME280;55625;47.072;22.192;2024-01-15T09:18:28;98332.53;;;2.56;100.00
68634;BME280;55625;47.072;22.192;2024-01-15T09:20:55;98335.50;;;2.49;100.00
68634;BME280;55625;47.072;22.192;2024-01-15T09:23:21;98339.88;;;2.50;100.00
68634;BME280;55625;47.072;22.192;2024-01-15T09:25:47;98352.50;;;2.58;100.00
68634;BME280;55625;47.072;22.192;2024-01-15T09:28:14;98372.38;;;2.64;100.00
68634;BME280;55625;47.072;22.192;2024-01-15T09:30:40;98387.06;;;2.68;100.00
68634;BME280;55625;47.072;22.192;2024-01-15T09:33:06;98390.50;;;2.75;100.00
68634;BME280;55625;47.072;22.192;2024-01-15T09:35:31;98392.31;;;2.66;100.00
68634;BME280;55625;47.072;22.192;2024-01-15T09:37:57;98398.88;;;2.59;100.00
68634;BME280;55625;47.072;22.192;2024-01-15T09:40:24;98372.09;;;2.38;100.00
68634;BME280;55625;47.072;22.192;2024-01-15T09:42:50;98363.00;;;2.34;100.00
68634;BME280;55625;47.072;22.192;2024-01-15T09:45:17;98356.84;;;2.23;100.00
68634;BME280;55625;47.072;22.192;2024-01-15T09:47:44;98363.06;;;2.11;100.00
68634;BME280;55625;47.072;22.192;2024-01-15T09:50:10;98354.03;;;2.03;100.00
68634;BME280;55625;47.072;22.192;2024-01-15T09:52:36;98346.66;;;1.93;100.00
68634;BME280;55625;47.072;22.192;2024-01-15T09:55:03;98353.09;;;1.90;100.00
68634;BME280;55625;47.072;22.192;2024-01-15T09:57:31;98332.81;;;1.86;100.00
68634;BME280;55625;47.072;22.192;2024-01-15T09:59:59;98349.16;;;1.88;100.00
68634;BME280;55625;47.072;22.192;2024-01-15T10:02:29;98348.38;;;1.87;100.00
68634;BME280;55625;47.072;22.192;2024-01-15T10:04:56;98354.22;;;1.73;100.00
68634;BME280;55625;47.072;22.192;2024-01-15T10:07:22;98356.88;;;1.80;100.00
68634;BME280;55625;47.072;22.192;2024-01-15T10:09:49;98347.47;;;1.70;100.00
68634;BME280;55625;47.072;22.192;2024-01-15T10:12:14;98355.78;;;1.74;100.00
68634;BME280;55625;47.072;22.192;2024-01-15T10:14:40;98344.38;;;1.65;100.00
68634;BME280;55625;47.072;22.192;2024-01-15T10:17:14;98330.75;;;1.67;100.00
68634;BME280;55625;47.072;22.192;2024-01-15T10:19:45;98339.28;;;1.60;100.00
68634;BME280;55625;47.072;22.192;2024-01-15T10:22:14;98340.00;;;1.64;100.00
68634;BME280;55625;47.072;22.192;2024-01-15T10:24:41;98333.78;;;1.56;100.00
68634;BME280;55625;47.072;22.192;2024-01-15T10:27:12;98342.69;;;1.47;100.00
68634;BME280;55625;47.072;22.192;2024-01-15T10:29:38;98333.94;;;1.45;100.00
68634;BME280;55625;47.072;22.192;2024-01-15T10:32:07;98329.06;;;1.49;100.00
68634;BME280;55625;47.072;22.192;2024-01-15T10:34:42;98327.63;;;1.41;100.00
68634;BME280;55625;47.072;22.192;2024-01-15T10:37:09;98334.72;;;1.46;100.00
68634;BME280;55625;47.072;22.192;2024-01-15T10:39:35;98330.13;;;1.36;100.00
68634;BME280;55625;47.072;22.192;2024-01-15T10:42:02;98332.13;;;1.35;100.00
68634;BME280;55625;47.072;22.192;2024-01-15T10:44:29;98327.41;;;1.32;100.00
68634;BME280;55625;47.072;22.192;2024-01-15T10:46:55;98324.25;;;1.30;100.00
68634;BME280;55625;47.072;22.192;2024-01-15T10:49:22;98320.66;;;1.30;100.00
68634;BME280;55625;47.072;22.192;2024-01-15T10:51:53;98309.91;;;1.28;100.00
68634;BME280;55625;47.072;22.192;2024-01-15T10:54:20;98299.09;;;1.30;100.00
68634;BME280;55625;47.072;22.192;2024-01-15T10:56:47;98302.31;;;1.29;100.00
68634;BME280;55625;47.072;22.192;2024-01-15T10:59:13;98306.31;;;1.28;100.00
68634;BME280;55625;47.072;22.192;2024-01-15T11:01:39;98299.16;;;1.27;100.00
68634;BME280;55625;47.072;22.192;2024-01-15T11:04:07;98288.69;;;1.31;100.00
68634;BME280;55625;47.072;22.192;2024-01-15T11:06:49;98304.63;;;1.34;100.00
68634;BME280;55625;47.072;22.192;2024-01-15T11:09:16;98300.59;;;1.35;100.00
68634;BME280;55625;47.072;22.192;2024-01-15T11:11:47;98298.16;;;1.37;100.00
68634;BME280;55625;47.072;22.192;2024-01-15T11:14:41;98302.47;;;1.41;100.00
68634;BME280;55625;47.072;22.192;2024-01-15T11:17:10;98295.53;;;1.49;100.00
68634;BME280;55625;47.072;22.192;2024-01-15T11:19:45;98298.31;;;1.49;100.00
68634;BME280;55625;47.072;22.192;2024-01-15T11:25:03;98299.13;;;1.50;100.00
68634;BME280;55625;47.072;22.192;2024-01-15T11:27:54;98291.47;;;1.54;100.00
68634;BME280;55625;47.072;22.192;2024-01-15T11:30:25;98299.44;;;1.55;100.00
68634;BME280;55625;47.072;22.192;2024-01-15T11:32:51;98290.53;;;1.61;100.00
68634;BME280;55625;47.072;22.192;2024-01-15T11:35:17;98294.56;;;1.60;100.00
68634;BME280;55625;47.072;22.192;2024-01-15T11:40:37;98296.91;;;1.61;100.00
68634;BME280;55625;47.072;22.192;2024-01-15T11:43:06;98289.97;;;1.69;100.00
68634;BME280;55625;47.072;22.192;2024-01-15T11:45:32;98280.94;;;1.62;100.00
68634;BME280;55625;47.072;22.192;2024-01-15T11:50:50;98271.47;;;1.55;100.00
68634;BME280;55625;47.072;22.192;2024-01-15T11:53:39;98274.81;;;1.47;100.00
68634;BME280;55625;47.072;22.192;2024-01-15T11:56:15;98290.78;;;1.46;100.00
68634;BME280;55625;47.072;22.192;2024-01-15T11:58:43;98289.22;;;1.45;100.00
68634;BME280;55625;47.072;22.192;2024-01-15T12:01:10;98283.19;;;1.47;100.00
68634;BME280;55625;47.072;22.192;2024-01-15T12:03:37;98282.34;;;1.50;100.00
68634;BME280;55625;47.072;22.192;2024-01-15T12:06:06;98282.41;;;1.46;100.00
68634;BME280;55625;47.072;22.192;2024-01-15T12:08:33;98295.97;;;1.48;100.00
68634;BME280;55625;47.072;22.192;2024-01-15T12:10:58;98295.09;;;1.51;100.00
68634;BME280;55625;47.072;22.192;2024-01-15T12:13:24;98291.22;;;1.45;100.00
68634;BME280;55625;47.072;22.192;2024-01-15T12:15:50;98287.13;;;1.49;100.00
68634;BME280;55625;47.072;22.192;2024-01-15T12:18:18;98283.56;;;1.49;100.00
68634;BME280;55625;47.072;22.192;2024-01-15T12:20:45;98282.97;;;1.38;100.00
68634;BME280;55625;47.072;22.192;2024-01-15T12:23:15;98281.03;;;1.35;100.00
68634;BME280;55625;47.072;22.192;2024-01-15T12:25:42;98273.44;;;1.35;100.00
68634;BME280;55625;47.072;22.192;2024-01-15T12:28:09;98274.59;;;1.38;100.00
68634;BME280;55625;47.072;22.192;2024-01-15T12:30:35;98268.66;;;1.36;100.00
68634;BME280;55625;47.072;22.192;2024-01-15T12:33:07;98269.44;;;1.36;100.00
68634;BME280;55625;47.072;22.192;2024-01-15T12:35:34;98267.13;;;1.31;100.00
68634;BME280;55625;47.072;22.192;2024-01-15T12:38:01;98261.13;;;1.33;100.00
68634;BME280;55625;47.072;22.192;2024-01-15T12:40:32;98271.44;;;1.36;100.00
68634;BME280;55625;47.072;22.192;2024-01-15T12:43:00;98266.28;;;1.34;100.00
68634;BME280;55625;47.072;22.192;2024-01-15T12:45:26;98270.28;;;1.33;100.00
68634;BME280;55625;47.072;22.192;2024-01-15T12:47:52;98257.47;;;1.36;100.00
68634;BME280;55625;47.072;22.192;2024-01-15T12:50:19;98268.66;;;1.36;100.00
68634;BME280;55625;47.072;22.192;2024-01-15T12:52:45;98267.00;;;1.38;100.00
68634;BME280;55625;47.072;22.192;2024-01-15T12:55:11;98264.19;;;1.38;100.00
68634;BME280;55625;47.072;22.192;2024-01-15T12:57:37;98265.84;;;1.36;100.00
68634;BME280;55625;47.072;22.192;2024-01-15T13:00:07;98267.06;;;1.35;100.00